Nelson, New Hampshire
Current Conditions -  °F | °C
As of 5:15 PM on Sunday 23 Nov 2014 (Local Time) from KEEN Reporting Station
Overcast Overcast  
Wind Chill: 46°   Ceiling: 10000
Heat Index: 48°   Visibility: 10mi
Dew Point: 37°   Wind: 6mph
Humidity: 66%   Direction: 170°S
Pressure: 30.1"   Gusts: NA
Location:  42.9982°N, 72.1464°W
Report Text: KEEN 232215Z AUTO 17005KT 10SM SCT055 OVC100 09/03 A3010 RMK AO1
Loading
Personal Weather Stations






























Interactive Weather Map New forecast layout! Learn more

10-Day Weather Forecast

Advertisements
Track Severe Weather on mobile